Time;durP1;ratioP1;P1;durP2;ratioP2;P2;SDS_P1;SDS_P2;PMS_P1;PMS_P2;Temp;Humidity;BMP_temperature;BMP_pressure;BME280_temperature;BME280_humidity;BME280_pressure;Samples;Min_cycle;Max_cycle;Signal;HPM_P1;HPM_P2
2023/08/12 00:01:09;;;;;;;2.97;2.10;;;18.40;99.90;;;;;;5037483;28;20260;-82
2023/08/12 00:03:35;;;;;;;2.47;2.10;;;18.30;99.90;;;;;;5058101;28;20193;-82
2023/08/12 00:06:01;;;;;;;5.22;2.60;;;18.10;99.90;;;;;;5059503;28;20197;-82
2023/08/12 00:08:27;;;;;;;3.38;2.13;;;18.20;99.90;;;;;;5059805;28;20182;-82
2023/08/12 00:10:53;;;;;;;3.07;2.30;;;18.20;99.90;;;;;;5059782;28;20230;-83
2023/08/12 00:13:18;;;;;;;3.60;2.10;;;18.30;99.90;;;;;;5041790;28;20185;-82
2023/08/12 00:15:44;;;;;;;2.57;2.10;;;18.40;99.90;;;;;;5059418;28;20173;-81
2023/08/12 00:18:10;;;;;;;3.10;2.10;;;18.40;99.90;;;;;;5059412;28;20204;-82
2023/08/12 00:20:37;;;;;;;5.00;2.20;;;18.30;99.90;;;;;;5040999;28;20170;-82
2023/08/12 00:23:04;;;;;;;4.55;2.20;;;18.30;99.90;;;;;;5040894;28;20169;-83
2023/08/12 00:25:29;;;;;;;3.13;2.23;;;18.20;99.90;;;;;;5041366;28;20624;-82
2023/08/12 00:27:55;;;;;;;3.00;2.17;;;18.30;99.90;;;;;;5041495;28;20198;-82
2023/08/12 00:30:20;;;;;;;4.10;2.30;;;18.30;99.90;;;;;;5040977;28;20177;-81
2023/08/12 00:32:46;;;;;;;3.77;2.00;;;18.30;99.90;;;;;;5040937;28;20221;-82
2023/08/12 00:35:12;;;;;;;2.93;2.27;;;18.30;99.90;;;;;;5041036;28;20173;-82
2023/08/12 00:37:37;;;;;;;2.93;2.20;;;18.40;99.90;;;;;;5058322;28;20218;-82
2023/08/12 00:40:04;;;;;;;2.20;2.00;;;18.40;99.90;;;;;;5058798;28;20625;-82
2023/08/12 00:42:29;;;;;;;4.67;2.20;;;18.40;99.90;;;;;;5058673;28;20300;-82
2023/08/12 00:44:55;;;;;;;4.20;2.17;;;18.40;99.90;;;;;;5040325;28;20201;-82
2023/08/12 00:47:21;;;;;;;2.43;2.20;;;18.30;99.90;;;;;;5058652;28;20244;-82
2023/08/12 00:49:47;;;;;;;7.27;2.20;;;18.20;99.90;;;;;;5058811;28;20182;-82
2023/08/12 00:52:14;;;;;;;3.30;2.27;;;18.10;99.90;;;;;;5058832;28;20184;-82
2023/08/12 00:54:39;;;;;;;2.80;2.30;;;17.90;99.90;;;;;;5040449;28;20535;-82
2023/08/12 00:57:07;;;;;;;5.27;4.83;;;17.90;99.90;;;;;;5040341;28;20207;-82
2023/08/12 00:59:36;;;;;;;112.07;19.40;;;17.90;99.90;;;;;;5040866;28;20235;-82
2023/08/12 01:02:01;;;;;;;6.50;2.80;;;18.10;99.90;;;;;;5041162;28;20226;-82
2023/08/12 01:04:27;;;;;;;2.77;2.20;;;18.10;99.90;;;;;;5041689;28;20178;-82
2023/08/12 01:06:53;;;;;;;4.73;2.50;;;18.10;99.90;;;;;;5058192;28;20200;-82
2023/08/12 01:09:19;;;;;;;3.70;2.17;;;18.10;99.90;;;;;;5040100;28;20169;-81
2023/08/12 01:12:09;;;;;;;4.60;2.60;;;18.10;99.90;;;;;;5058825;28;20656;-82
2023/08/12 01:14:50;;;;;;;2.90;2.60;;;18.20;99.90;;;;;;5039331;28;20184;-83
2023/08/12 01:17:16;;;;;;;2.40;2.17;;;18.20;99.90;;;;;;5039697;28;20196;-82
2023/08/12 01:19:44;;;;;;;4.33;2.50;;;18.10;99.90;;;;;;5058144;28;20197;-82
2023/08/12 01:22:11;;;;;;;2.53;2.33;;;18.10;99.90;;;;;;5058792;28;20172;-82
2023/08/12 01:24:39;;;;;;;3.13;2.63;;;18.10;99.90;;;;;;5058169;28;20169;-81
2023/08/12 01:27:06;;;;;;;2.93;2.33;;;18.10;99.90;;;;;;5040001;28;20189;-82
2023/08/12 01:29:52;;;;;;;4.20;2.50;;;18.20;99.90;;;;;;5039884;28;20173;-82
2023/08/12 01:32:23;;;;;;;3.60;2.47;;;18.20;99.90;;;;;;5039785;28;20313;-82
2023/08/12 01:34:52;;;;;;;3.93;2.60;;;18.10;99.90;;;;;;5040234;28;20212;-82
2023/08/12 01:37:24;;;;;;;5.37;2.60;;;18.00;99.90;;;;;;5057728;28;20287;-82
2023/08/12 01:39:52;;;;;;;4.13;2.13;;;17.90;99.90;;;;;;5058169;28;20680;-83
2023/08/12 01:42:19;;;;;;;3.53;2.53;;;17.90;99.90;;;;;;5058222;28;20173;-82
2023/08/12 01:44:45;;;;;;;3.27;2.50;;;17.80;99.90;;;;;;5039880;28;20165;-82
2023/08/12 01:47:11;;;;;;;3.33;2.30;;;17.70;99.90;;;;;;5057692;28;20556;-82
2023/08/12 01:49:37;;;;;;;3.90;2.60;;;17.60;99.90;;;;;;5057443;28;20185;-81
2023/08/12 01:52:02;;;;;;;3.43;2.33;;;17.70;99.90;;;;;;5057663;28;20671;-82
2023/08/12 01:54:33;;;;;;;4.07;2.40;;;17.70;99.90;;;;;;5057825;28;20264;-82
2023/08/12 01:57:05;;;;;;;4.10;2.13;;;17.70;99.90;;;;;;5038756;28;20194;-81
2023/08/12 01:59:31;;;;;;;4.07;2.10;;;17.70;99.90;;;;;;5039748;28;20311;-82
2023/08/12 02:01:57;;;;;;;2.67;2.20;;;17.60;99.90;;;;;;5038674;28;20170;-82
2023/08/12 02:04:22;;;;;;;4.60;2.57;;;17.70;99.90;;;;;;5039362;28;20237;-81
2023/08/12 02:06:49;;;;;;;5.13;2.40;;;17.70;99.90;;;;;;5039528;28;20185;-82
2023/08/12 02:09:15;;;;;;;5.43;2.60;;;17.70;99.90;;;;;;5057323;28;20204;-82
2023/08/12 02:11:40;;;;;;;5.57;2.30;;;17.70;99.90;;;;;;5039238;28;20178;-82
2023/08/12 02:14:06;;;;;;;3.20;2.43;;;17.70;99.90;;;;;;5039525;28;20264;-82
2023/08/12 02:16:32;;;;;;;2.60;2.17;;;17.80;99.90;;;;;;5058161;28;20691;-82
2023/08/12 02:18:57;;;;;;;3.57;2.40;;;17.90;99.90;;;;;;5038885;28;20676;-82
2023/08/12 02:21:23;;;;;;;4.57;2.07;;;18.00;99.90;;;;;;5056821;28;20256;-81
2023/08/12 02:23:48;;;;;;;4.40;2.50;;;18.10;99.90;;;;;;5056646;28;20169;-82
2023/08/12 02:26:15;;;;;;;2.73;2.30;;;18.10;99.90;;;;;;5056818;28;20185;-82
2023/08/12 02:28:41;;;;;;;2.63;2.40;;;18.10;99.90;;;;;;5056079;28;20173;-82
2023/08/12 02:31:06;;;;;;;3.07;2.50;;;18.00;99.90;;;;;;5038652;28;20178;-82
2023/08/12 02:33:32;;;;;;;3.00;2.37;;;18.00;99.90;;;;;;5038659;28;20182;-83
2023/08/12 02:36:02;;;;;;;2.87;2.53;;;18.00;99.90;;;;;;5039913;28;20237;-82
2023/08/12 02:38:27;;;;;;;5.03;2.70;;;18.10;99.90;;;;;;5056726;28;20201;-82
2023/08/12 02:40:53;;;;;;;2.77;2.57;;;18.00;99.90;;;;;;5038308;28;20247;-82
2023/08/12 02:43:18;;;;;;;3.40;2.57;;;18.00;99.90;;;;;;5056528;28;20177;-82
2023/08/12 02:45:44;;;;;;;3.80;2.67;;;18.00;99.90;;;;;;5055925;28;20171;-82
2023/08/12 02:48:10;;;;;;;3.30;3.00;;;18.00;99.90;;;;;;5038179;28;20166;-82
2023/08/12 02:50:36;;;;;;;4.60;2.97;;;18.00;99.90;;;;;;5056393;28;20205;-82
2023/08/12 02:53:02;;;;;;;3.87;2.73;;;18.00;99.90;;;;;;5038255;28;20169;-82
2023/08/12 02:55:28;;;;;;;3.90;2.60;;;18.00;99.90;;;;;;5038026;28;20554;-82
2023/08/12 02:57:54;;;;;;;3.30;3.00;;;18.00;99.90;;;;;;5056127;28;20198;-82
2023/08/12 03:00:20;;;;;;;3.97;3.00;;;17.90;99.90;;;;;;5056105;28;20652;-81
2023/08/12 03:02:46;;;;;;;3.97;2.77;;;17.90;99.90;;;;;;5056108;28;20188;-83
2023/08/12 03:05:11;;;;;;;5.10;3.50;;;17.90;99.90;;;;;;5038073;28;20269;-82
2023/08/12 03:07:37;;;;;;;4.37;2.80;;;17.90;99.90;;;;;;5055919;28;20665;-82
2023/08/12 03:10:02;;;;;;;3.30;2.70;;;17.90;99.90;;;;;;5056084;28;20185;-82
2023/08/12 03:12:28;;;;;;;3.20;2.80;;;17.90;99.90;;;;;;5038144;28;20203;-82
2023/08/12 03:14:53;;;;;;;3.73;3.00;;;17.90;99.90;;;;;;5037491;28;20232;-82
2023/08/12 03:17:19;;;;;;;2.90;2.60;;;17.90;99.90;;;;;;5037338;28;20190;-81
2023/08/12 03:19:44;;;;;;;6.70;3.13;;;17.90;99.90;;;;;;5037661;28;20570;-82
2023/08/12 03:22:10;;;;;;;3.00;2.40;;;17.80;99.90;;;;;;5037156;28;20528;-81
2023/08/12 03:24:36;;;;;;;3.37;2.40;;;17.80;99.90;;;;;;5055598;28;20185;-82
2023/08/12 03:27:01;;;;;;;2.97;2.30;;;17.80;99.90;;;;;;5055090;28;20253;-81
2023/08/12 03:29:27;;;;;;;3.17;2.40;;;17.80;99.90;;;;;;5055002;28;20181;-82
2023/08/12 03:31:52;;;;;;;3.00;2.50;;;17.80;99.90;;;;;;5037344;28;20236;-82
2023/08/12 03:34:18;;;;;;;2.87;2.53;;;17.90;99.90;;;;;;5037517;28;20174;-81
2023/08/12 03:36:45;;;;;;;3.17;2.40;;;17.90;99.90;;;;;;5055401;28;20256;-82
2023/08/12 03:39:11;;;;;;;3.97;2.40;;;18.00;99.90;;;;;;5054579;28;20198;-82
2023/08/12 03:41:37;;;;;;;2.70;2.50;;;18.00;99.90;;;;;;5054781;28;20166;-82
2023/08/12 03:44:02;;;;;;;2.90;2.70;;;17.90;99.90;;;;;;5055170;28;20173;-81
2023/08/12 03:46:28;;;;;;;2.83;2.57;;;18.00;99.90;;;;;;5037069;28;20332;-82
2023/08/12 03:48:53;;;;;;;2.80;2.60;;;18.00;99.90;;;;;;5055178;28;20170;-82
2023/08/12 03:51:19;;;;;;;2.63;2.40;;;18.00;99.90;;;;;;5037144;28;20229;-82
2023/08/12 03:53:44;;;;;;;3.20;2.50;;;18.00;99.90;;;;;;5037351;28;20235;-82
2023/08/12 03:56:10;;;;;;;3.57;2.70;;;18.00;99.90;;;;;;5036899;28;20200;-83
2023/08/12 03:58:35;;;;;;;2.60;2.40;;;17.90;99.90;;;;;;5055019;28;20205;-81
2023/08/12 04:01:01;;;;;;;4.87;2.50;;;18.00;99.90;;;;;;5054859;28;20180;-82
2023/08/12 04:03:26;;;;;;;3.20;2.60;;;18.00;99.90;;;;;;5055683;28;20276;-82
2023/08/12 04:05:52;;;;;;;4.87;2.60;;;18.00;99.90;;;;;;5038123;28;20197;-81
2023/08/12 04:08:23;;;;;;;3.63;2.83;;;18.00;99.90;;;;;;5055267;28;20727;-82
2023/08/12 04:10:48;;;;;;;3.83;2.60;;;18.10;99.90;;;;;;5037729;28;20192;-82
2023/08/12 04:13:14;;;;;;;3.43;2.80;;;18.10;99.90;;;;;;5037761;28;20178;-82
2023/08/12 04:15:41;;;;;;;5.33;2.77;;;18.20;99.90;;;;;;5037744;28;20227;-81
2023/08/12 04:18:07;;;;;;;4.70;2.70;;;18.20;99.90;;;;;;5037617;28;20201;-80
2023/08/12 04:20:32;;;;;;;2.93;2.60;;;18.20;99.90;;;;;;5056234;28;20176;-82
2023/08/12 04:22:58;;;;;;;3.60;2.70;;;18.10;99.90;;;;;;5037807;28;20184;-82
2023/08/12 04:25:24;;;;;;;3.13;2.50;;;18.10;99.90;;;;;;5055837;28;20185;-82
2023/08/12 04:27:49;;;;;;;3.67;2.20;;;18.10;99.90;;;;;;5037720;28;20190;-82
2023/08/12 04:30:18;;;;;;;3.77;2.90;;;17.90;99.90;;;;;;5056028;28;20178;-83
2023/08/12 04:32:44;;;;;;;3.07;2.77;;;17.90;99.90;;;;;;5037878;28;20178;-82
2023/08/12 04:35:10;;;;;;;4.00;2.73;;;17.90;99.90;;;;;;5037884;28;20180;-82
2023/08/12 04:37:36;;;;;;;3.70;2.80;;;18.00;99.90;;;;;;5037320;28;20213;-82
2023/08/12 04:40:07;;;;;;;4.10;2.83;;;18.00;99.90;;;;;;5055304;28;20311;-82
2023/08/12 04:42:33;;;;;;;3.00;2.70;;;18.00;99.90;;;;;;5037875;28;20237;-82
2023/08/12 04:44:58;;;;;;;3.73;3.00;;;18.10;99.90;;;;;;5037546;28;20251;-82
2023/08/12 04:47:24;;;;;;;5.40;3.13;;;18.20;99.90;;;;;;5055666;28;20194;-83
2023/08/12 04:49:49;;;;;;;3.60;3.13;;;18.20;99.90;;;;;;5040287;28;20204;-82
2023/08/12 04:52:15;;;;;;;3.17;2.87;;;18.30;99.90;;;;;;5059764;28;20173;-80
2023/08/12 04:54:41;;;;;;;3.67;3.27;;;18.20;99.90;;;;;;5059261;28;20185;-82
2023/08/12 04:57:06;;;;;;;3.80;3.17;;;18.20;99.90;;;;;;5059360;28;20193;-83
2023/08/12 04:59:32;;;;;;;3.90;3.43;;;18.20;99.90;;;;;;5041017;28;20216;-82
2023/08/12 05:01:57;;;;;;;3.83;3.40;;;18.20;99.90;;;;;;5040120;28;20169;-82
2023/08/12 05:04:23;;;;;;;4.27;3.37;;;18.20;99.90;;;;;;5058852;28;20193;-82
2023/08/12 05:06:48;;;;;;;5.77;3.67;;;18.20;99.90;;;;;;5041110;28;20284;-82
2023/08/12 05:09:14;;;;;;;4.57;3.13;;;18.20;99.90;;;;;;5040183;28;20174;-83
2023/08/12 05:11:40;;;;;;;4.33;3.40;;;18.20;99.90;;;;;;5039986;28;20220;-83
2023/08/12 05:14:06;;;;;;;3.67;3.33;;;18.20;99.90;;;;;;5038387;28;20181;-84
2023/08/12 05:16:31;;;;;;;3.63;3.33;;;18.30;99.90;;;;;;5056755;28;20221;-82
2023/08/12 05:18:57;;;;;;;4.77;3.50;;;18.30;99.90;;;;;;5040084;28;20212;-81
2023/08/12 05:21:23;;;;;;;2.47;2.27;;;18.30;99.90;;;;;;5040897;28;20174;-81
2023/08/12 05:23:48;;;;;;;4.53;3.63;;;18.40;99.90;;;;;;5042691;28;20197;-82
2023/08/12 05:26:14;;;;;;;4.00;3.37;;;18.50;99.90;;;;;;5061360;28;20217;-82
2023/08/12 05:28:39;;;;;;;2.90;2.60;;;18.60;99.90;;;;;;5042169;28;20183;-82
2023/08/12 05:31:05;;;;;;;3.90;3.08;;;18.70;99.90;;;;;;5042682;28;20170;-82
2023/08/12 05:33:31;;;;;;;3.70;3.40;;;18.80;99.90;;;;;;5041828;28;20181;-82
2023/08/12 05:35:57;;;;;;;5.18;3.38;;;18.70;99.90;;;;;;5041142;28;20209;-81
2023/08/12 05:38:22;;;;;;;4.07;3.70;;;18.60;99.90;;;;;;5060143;28;20208;-81
2023/08/12 05:40:48;;;;;;;5.13;3.70;;;18.50;99.90;;;;;;5059719;28;20542;-82
2023/08/12 05:43:13;;;;;;;4.57;4.17;;;18.40;99.90;;;;;;5041831;28;20200;-81
2023/08/12 05:45:39;;;;;;;4.80;4.30;;;18.30;99.90;;;;;;5042228;28;20633;-81
2023/08/12 05:48:05;;;;;;;3.90;3.10;;;18.40;99.90;;;;;;5060543;28;20178;-82
2023/08/12 05:50:30;;;;;;;4.17;3.77;;;18.50;99.90;;;;;;5041418;28;20178;-84
2023/08/12 05:52:56;;;;;;;4.97;3.83;;;18.70;99.90;;;;;;5040979;28;20193;-82
2023/08/12 05:55:22;;;;;;;4.40;3.72;;;18.80;99.90;;;;;;5040302;28;20170;-82
2023/08/12 05:57:47;;;;;;;4.20;3.80;;;18.80;99.90;;;;;;5041009;28;20289;-82
2023/08/12 06:00:13;;;;;;;6.18;3.63;;;18.80;99.90;;;;;;5057386;28;20223;-84
2023/08/12 06:02:38;;;;;;;4.20;3.80;;;18.70;99.90;;;;;;5058129;28;20182;-84
2023/08/12 06:05:05;;;;;;;5.13;3.90;;;18.60;99.90;;;;;;5059007;28;20174;-82
2023/08/12 06:07:30;;;;;;;3.70;3.40;;;18.60;99.90;;;;;;5058883;28;20194;-82
2023/08/12 06:09:56;;;;;;;6.63;3.60;;;18.50;99.90;;;;;;5058308;28;20242;-83
2023/08/12 06:12:21;;;;;;;3.97;3.63;;;18.50;99.90;;;;;;5058142;28;20189;-85
2023/08/12 06:14:47;;;;;;;6.83;3.53;;;18.50;99.90;;;;;;5040607;28;20323;-83
2023/08/12 06:17:12;;;;;;;3.90;3.60;;;18.50;99.90;;;;;;5041114;28;20198;-82
2023/08/12 06:19:38;;;;;;;4.33;3.93;;;18.60;99.90;;;;;;5042135;28;20216;-83
2023/08/12 06:22:03;;;;;;;5.78;3.72;;;18.60;99.90;;;;;;5041408;28;20174;-82
2023/08/12 06:24:29;;;;;;;5.18;3.88;;;18.70;99.90;;;;;;5040882;28;20172;-82
2023/08/12 06:26:55;;;;;;;4.88;3.55;;;18.70;99.90;;;;;;5042152;28;20198;-82
2023/08/12 06:29:20;;;;;;;4.03;3.38;;;18.80;99.90;;;;;;5060257;28;20173;-81
2023/08/12 06:31:46;;;;;;;3.67;3.37;;;18.80;99.90;;;;;;5042277;28;20177;-81
2023/08/12 06:34:11;;;;;;;3.65;3.35;;;18.90;99.90;;;;;;5060238;28;20260;-81
2023/08/12 06:36:37;;;;;;;4.20;3.65;;;18.90;99.90;;;;;;5057855;28;20241;-80
2023/08/12 06:39:03;;;;;;;4.88;4.00;;;19.00;99.90;;;;;;5041188;28;20193;-82
2023/08/12 06:41:28;;;;;;;4.47;3.70;;;19.10;99.90;;;;;;5040272;28;20230;-80
2023/08/12 06:43:54;;;;;;;3.97;3.58;;;19.10;99.90;;;;;;5042816;28;20201;-80
2023/08/12 06:46:20;;;;;;;4.65;3.47;;;19.20;99.90;;;;;;5060669;28;20263;-80
2023/08/12 06:48:45;;;;;;;3.75;3.45;;;19.20;99.90;;;;;;5042656;28;20588;-82
2023/08/12 06:51:11;;;;;;;3.80;3.50;;;19.40;99.90;;;;;;5042653;28;20178;-81
2023/08/12 06:53:38;;;;;;;3.97;3.67;;;19.40;99.90;;;;;;5042381;28;20253;-81
2023/08/12 06:56:03;;;;;;;4.15;3.85;;;19.50;99.90;;;;;;5059064;28;20196;-81
2023/08/12 06:58:29;;;;;;;3.78;3.47;;;19.60;99.90;;;;;;5060179;28;20202;-81
2023/08/12 07:00:54;;;;;;;5.20;3.70;;;19.70;99.90;;;;;;5041286;28;20253;-80
2023/08/12 07:03:22;;;;;;;4.18;3.78;;;19.90;99.90;;;;;;5040352;28;20162;-80
2023/08/12 07:05:47;;;;;;;4.45;3.40;;;20.00;99.90;;;;;;5040678;28;20621;-82
2023/08/12 07:08:13;;;;;;;5.70;3.90;;;20.10;99.90;;;;;;5058839;28;20169;-81
2023/08/12 07:10:40;;;;;;;4.25;3.72;;;20.20;99.90;;;;;;5039316;28;20173;-81
2023/08/12 07:13:05;;;;;;;5.97;4.07;;;20.20;99.90;;;;;;5058203;28;20178;-81
2023/08/12 07:15:31;;;;;;;4.55;3.63;;;20.30;99.90;;;;;;5041131;28;20214;-81
2023/08/12 07:17:57;;;;;;;4.03;3.72;;;20.40;99.90;;;;;;5041178;28;20185;-82
2023/08/12 07:20:24;;;;;;;4.63;4.22;;;20.50;99.90;;;;;;5040937;28;20235;-80
2023/08/12 07:22:49;;;;;;;4.13;3.75;;;20.50;99.90;;;;;;5059044;28;20165;-81
2023/08/12 07:25:15;;;;;;;4.35;3.65;;;20.60;99.90;;;;;;5058775;28;20166;-81
2023/08/12 07:27:41;;;;;;;4.10;3.70;;;20.70;99.90;;;;;;5060317;28;20189;-80
2023/08/12 07:30:07;;;;;;;4.40;4.00;;;20.90;99.90;;;;;;5058804;28;20178;-83
2023/08/12 07:32:33;;;;;;;5.40;3.88;;;21.00;99.90;;;;;;5040797;28;20173;-81
2023/08/12 07:34:59;;;;;;;4.10;3.47;;;21.10;99.90;;;;;;5041778;28;20547;-81
2023/08/12 07:37:25;;;;;;;3.85;3.45;;;21.20;99.90;;;;;;5059003;28;20202;-80
2023/08/12 07:39:51;;;;;;;3.90;3.60;;;21.20;99.90;;;;;;5040218;28;20212;-81
2023/08/12 07:42:17;;;;;;;4.30;3.83;;;21.20;99.90;;;;;;5041450;28;20173;-81
2023/08/12 07:44:42;;;;;;;4.90;3.67;;;21.30;99.90;;;;;;5059874;28;20178;-80
2023/08/12 07:47:09;;;;;;;4.93;3.35;;;21.30;99.90;;;;;;5060373;28;20197;-81
2023/08/12 07:49:34;;;;;;;4.68;3.90;;;21.40;99.90;;;;;;5041179;28;20227;-81
2023/08/12 07:52:00;;;;;;;3.75;3.33;;;21.50;99.90;;;;;;5060567;28;20237;-81
2023/08/12 07:54:26;;;;;;;3.92;3.53;;;21.60;99.90;;;;;;5041481;28;20663;-81
2023/08/12 07:56:53;;;;;;;3.90;3.35;;;21.60;99.90;;;;;;5041192;28;20194;-80
2023/08/12 07:59:19;;;;;;;3.92;3.53;;;21.70;99.90;;;;;;5059924;28;20205;-81
2023/08/12 08:01:45;;;;;;;7.40;3.90;;;21.80;99.90;;;;;;5059542;28;20174;-81
2023/08/12 08:04:11;;;;;;;5.35;3.90;;;21.80;99.90;;;;;;5041813;28;20166;-81
2023/08/12 08:06:36;;;;;;;4.20;3.80;;;21.90;99.90;;;;;;5059371;28;20197;-81
2023/08/12 08:09:03;;;;;;;5.72;3.85;;;22.00;99.90;;;;;;5041210;28;20176;-81
2023/08/12 08:11:29;;;;;;;4.32;3.72;;;22.00;99.90;;;;;;5041171;28;20177;-81
2023/08/12 08:13:55;;;;;;;5.78;4.00;;;22.30;99.90;;;;;;5059235;28;20170;-81
2023/08/12 08:16:21;;;;;;;4.50;3.70;;;22.50;99.90;;;;;;5041133;28;20201;-81
2023/08/12 08:18:46;;;;;;;7.15;3.95;;;22.80;99.90;;;;;;5040724;28;20207;-80
2023/08/12 08:21:12;;;;;;;3.92;3.60;;;23.10;99.90;;;;;;5040465;28;20174;-81
2023/08/12 08:23:37;;;;;;;4.70;3.78;;;23.30;99.90;;;;;;5041368;28;20169;-81
2023/08/12 08:26:03;;;;;;;4.35;3.65;;;23.50;56.90;;;;;;5045023;28;20194;-81
2023/08/12 08:28:28;;;;;;;6.05;4.03;;;23.40;1.00;;;;;;5045124;28;20170;-81
2023/08/12 08:30:54;;;;;;;3.90;3.60;;;23.30;1.00;;;;;;5045091;28;20591;-82
2023/08/12 08:33:19;;;;;;;4.57;3.72;;;23.30;80.40;;;;;;5063695;28;20637;-81
2023/08/12 08:35:45;;;;;;;5.32;4.13;;;23.50;18.10;;;;;;5044355;28;20174;-83
2023/08/12 08:38:10;;;;;;;4.93;3.60;;;23.70;1.00;;;;;;5046304;28;20197;-82
2023/08/12 08:40:36;;;;;;;4.82;4.03;;;23.70;1.00;;;;;;5044733;28;20633;-81
2023/08/12 08:43:06;;;;;;;4.43;4.00;;;23.70;1.00;;;;;;5045159;28;20173;-81
2023/08/12 08:45:33;;;;;;;5.65;3.90;;;23.80;27.20;;;;;;5062638;28;20584;-81
2023/08/12 08:48:01;;;;;;;4.40;3.95;;;23.80;47.60;;;;;;5044558;28;20651;-81
2023/08/12 08:50:31;;;;;;;4.25;3.78;;;24.10;1.00;;;;;;5063151;28;20174;-80
2023/08/12 08:52:57;;;;;;;4.03;3.63;;;24.20;1.00;;;;;;5044585;28;20304;-81
2023/08/12 08:55:23;;;;;;;5.32;3.72;;;24.40;1.00;;;;;;5063051;28;20166;-82
2023/08/12 08:57:50;;;;;;;3.88;3.58;;;24.40;1.00;;;;;;5063415;28;20193;-81
2023/08/12 09:00:16;;;;;;;4.00;3.70;;;24.30;1.00;;;;;;5044329;28;20177;-80
2023/08/12 09:02:45;;;;;;;5.13;3.80;;;24.30;1.00;;;;;;5044143;28;20177;-81
2023/08/12 09:05:12;;;;;;;4.05;3.65;;;24.20;1.00;;;;;;5062958;28;20200;-81
2023/08/12 09:07:40;;;;;;;3.85;3.55;;;24.40;1.00;;;;;;5062716;28;20193;-81
2023/08/12 09:10:07;;;;;;;3.67;3.30;;;24.70;1.00;;;;;;5043740;28;20181;-81
2023/08/12 09:12:33;;;;;;;3.85;3.50;;;25.10;99.90;;;;;;5063251;28;20177;-81
2023/08/12 09:14:59;;;;;;;3.95;3.55;;;25.30;99.90;;;;;;5062789;28;20173;-81
2023/08/12 09:17:24;;;;;;;4.32;3.60;;;25.30;1.00;;;;;;5063096;28;20193;-81
2023/08/12 09:19:50;;;;;;;4.75;3.50;;;25.10;1.00;;;;;;5061183;28;20227;-82
2023/08/12 09:22:18;;;;;;;3.78;3.47;;;25.30;99.90;;;;;;5060873;28;20197;-82
2023/08/12 09:24:43;;;;;;;3.53;3.22;;;25.40;99.90;;;;;;5062117;28;20223;-81
2023/08/12 09:27:09;;;;;;;3.70;3.40;;;25.70;1.00;;;;;;5044920;28;20185;-80
2023/08/12 09:29:36;;;;;;;3.80;3.40;;;25.90;99.90;;;;;;5063630;28;20194;-78
2023/08/12 09:32:11;;;;;;;3.67;3.22;;;25.90;99.90;;;;;;5045401;28;20641;-81
2023/08/12 09:34:37;;;;;;;3.47;3.17;;;26.00;99.90;;;;;;5063850;28;20177;-81
2023/08/12 09:37:03;;;;;;;5.30;3.38;;;25.80;99.90;;;;;;5042947;28;20232;-82
2023/08/12 09:39:30;;;;;;;4.95;3.35;;;25.70;99.90;;;;;;5063784;28;20265;-81
2023/08/12 09:41:56;;;;;;;3.83;3.20;;;25.60;1.00;;;;;;5045108;28;20407;-80
2023/08/12 09:44:22;;;;;;;3.72;3.00;;;25.40;1.00;;;;;;5065077;28;20545;-80
2023/08/12 09:46:48;;;;;;;4.18;2.90;;;25.30;99.90;;;;;;5062391;28;20264;-80
2023/08/12 09:49:13;;;;;;;4.35;3.17;;;25.30;1.00;;;;;;5042191;28;20170;-81
2023/08/12 09:51:43;;;;;;;5.40;3.30;;;25.40;99.90;;;;;;5041702;28;20219;-81
2023/08/12 09:54:11;;;;;;;3.50;3.20;;;25.30;1.00;;;;;;5060822;28;20201;-81
2023/08/12 09:56:39;;;;;;;4.07;3.30;;;25.40;15.90;;;;;;5059985;28;20761;-81
2023/08/12 09:59:08;;;;;;;3.65;3.20;;;25.50;8.10;;;;;;5061213;28;20193;-79
2023/08/12 10:01:35;;;;;;;4.68;2.88;;;25.30;1.00;;;;;;5057030;28;20178;-80
2023/08/12 10:04:01;;;;;;;4.10;3.05;;;25.30;99.90;;;;;;5040120;28;20590;-80
2023/08/12 10:06:27;;;;;;;4.00;2.70;;;25.30;1.00;;;;;;5044049;28;20189;-81
2023/08/12 10:08:53;;;;;;;3.63;2.97;;;25.40;99.90;;;;;;5065459;28;20573;-80
2023/08/12 10:11:19;;;;;;;3.50;3.20;;;25.30;37.70;;;;;;5046582;28;20178;-80
2023/08/12 10:13:46;;;;;;;3.17;2.88;;;25.30;1.00;;;;;;5046352;28;20181;-80
2023/08/12 10:16:13;;;;;;;3.35;3.03;;;25.30;39.00;;;;;;5046902;28;20284;-82
2023/08/12 10:18:40;;;;;;;5.05;3.10;;;25.40;99.90;;;;;;5065613;28;20265;-80
2023/08/12 10:21:13;;;;;;;2.85;2.65;;;25.60;1.00;;;;;;5064048;28;20201;-81
2023/08/12 10:23:41;;;;;;;3.10;2.80;;;25.60;1.00;;;;;;5065845;28;20228;-82
2023/08/12 10:26:07;;;;;;;3.53;2.72;;;25.60;1.00;;;;;;5046098;28;20193;-82
2023/08/12 10:28:36;;;;;;;4.60;2.78;;;25.70;1.00;;;;;;5064404;28;20178;-80
2023/08/12 10:31:04;;;;;;;3.28;2.58;;;25.80;99.90;;;;;;5045445;28;20174;-80
2023/08/12 10:33:29;;;;;;;2.90;2.53;;;26.00;1.00;;;;;;5046193;28;20730;-80
2023/08/12 10:35:56;;;;;;;3.47;2.55;;;26.50;99.90;;;;;;5046178;28;20194;-80
2023/08/12 10:38:25;;;;;;;3.10;2.45;;;26.50;1.00;;;;;;5040671;28;20218;-83
2023/08/12 10:40:51;;;;;;;3.65;2.63;;;26.30;1.00;;;;;;5039720;28;20169;-81
2023/08/12 10:43:17;;;;;;;4.95;2.78;;;26.00;1.00;;;;;;5039742;28;20205;-82
2023/08/12 10:45:52;;;;;;;3.75;3.00;;;25.80;1.00;;;;;;5039135;28;20525;-83
2023/08/12 10:48:25;;;;;;;3.85;2.72;;;25.60;1.00;;;;;;5039124;28;20173;-81
2023/08/12 10:50:59;;;;;;;3.45;2.63;;;26.10;24.50;;;;;;5039356;28;20173;-81
2023/08/12 10:53:31;;;;;;;5.22;2.78;;;26.40;1.00;;;;;;5039668;28;20176;-81
2023/08/12 10:56:03;;;;;;;2.97;2.65;;;26.20;1.00;;;;;;5038973;28;20232;-82
2023/08/12 10:58:34;;;;;;;3.00;2.60;;;26.10;1.00;;;;;;5039329;28;20229;-81
2023/08/12 11:01:00;;;;;;;3.75;2.80;;;26.10;1.00;;;;;;5039361;28;20172;-81
2023/08/12 11:03:26;;;;;;;3.58;3.13;;;26.10;99.90;;;;;;5057661;28;20260;-81
2023/08/12 11:05:55;;;;;;;3.72;2.90;;;26.10;1.00;;;;;;5057186;28;20197;-81
2023/08/12 11:08:25;;;;;;;3.22;2.78;;;26.20;1.00;;;;;;5039558;28;20174;-81
2023/08/12 11:10:54;;;;;;;3.63;2.67;;;26.40;99.90;;;;;;5058029;28;20244;-80
2023/08/12 11:13:20;;;;;;;3.47;2.70;;;26.40;99.90;;;;;;5059387;28;20197;-81
2023/08/12 11:15:47;;;;;;;3.30;2.80;;;26.80;99.90;;;;;;5039866;28;20170;-82
2023/08/12 11:18:14;;;;;;;3.08;2.60;;;27.00;99.90;;;;;;5054796;28;20190;-81
2023/08/12 11:20:40;;;;;;;5.20;2.97;;;27.00;1.00;;;;;;5058922;28;20259;-81
2023/08/12 11:23:07;;;;;;;2.90;2.60;;;27.50;1.00;;;;;;5041689;28;20182;-80
2023/08/12 11:25:34;;;;;;;3.40;2.63;;;27.60;1.00;;;;;;5059343;28;20173;-80
2023/08/12 11:28:00;;;;;;;6.07;2.75;;;27.80;99.90;;;;;;5042065;28;20648;-81
2023/08/12 11:30:26;;;;;;;3.00;2.70;;;27.80;1.00;;;;;;5041252;28;20181;-80
2023/08/12 11:32:54;;;;;;;2.92;2.60;;;27.90;1.00;;;;;;5060277;28;20173;-81
2023/08/12 11:35:21;;;;;;;2.60;2.40;;;27.80;1.00;;;;;;5059344;28;20170;-80
2023/08/12 11:37:50;;;;;;;4.15;2.20;;;27.60;99.90;;;;;;5059786;28;20206;-80
2023/08/12 11:40:19;;;;;;;2.95;2.33;;;27.30;99.90;;;;;;5040559;28;20205;-81
2023/08/12 11:42:46;;;;;;;2.72;2.28;;;27.00;99.90;;;;;;5058341;28;20178;-81
2023/08/12 11:45:13;;;;;;;2.30;2.10;;;26.70;1.00;;;;;;5041239;28;20177;-81
2023/08/12 11:47:40;;;;;;;3.50;2.25;;;26.50;1.00;;;;;;5058784;28;20212;-81
2023/08/12 11:50:08;;;;;;;3.92;2.20;;;26.30;99.90;;;;;;5040221;28;20177;-81
2023/08/12 11:52:35;;;;;;;2.25;2.05;;;26.10;99.90;;;;;;5058383;28;20169;-82
2023/08/12 11:55:01;;;;;;;3.35;2.17;;;26.00;99.90;;;;;;5039454;28;20177;-82
2023/08/12 11:57:28;;;;;;;3.33;2.28;;;26.00;1.00;;;;;;5057785;28;20224;-82
2023/08/12 11:59:59;;;;;;;2.95;2.33;;;25.90;1.00;;;;;;5061702;28;20208;-82
2023/08/12 12:02:25;;;;;;;2.97;2.30;;;25.90;99.90;;;;;;5044707;28;20628;-82
2023/08/12 12:04:52;;;;;;;2.88;2.60;;;25.70;1.00;;;;;;5062337;28;20180;-82
2023/08/12 12:07:22;;;;;;;3.45;2.97;;;25.50;1.00;;;;;;5043947;28;20263;-81
2023/08/12 12:09:52;;;;;;;2.47;2.22;;;25.50;1.00;;;;;;5045234;28;20173;-82
2023/08/12 12:12:18;;;;;;;2.25;1.80;;;25.30;1.00;;;;;;5045039;28;20177;-82
2023/08/12 12:14:43;;;;;;;3.03;2.00;;;25.20;99.90;;;;;;5064108;28;20223;-82
2023/08/12 12:17:10;;;;;;;2.17;1.70;;;25.00;1.00;;;;;;5063523;28;20206;-82
2023/08/12 12:19:35;;;;;;;1.92;1.70;;;24.60;99.90;;;;;;5044994;28;20263;-78
2023/08/12 12:22:05;;;;;;;1.95;1.75;;;24.40;1.00;;;;;;5045314;28;20174;-82
2023/08/12 12:24:31;;;;;;;2.72;2.22;;;24.20;1.00;;;;;;5063454;28;20177;-82
2023/08/12 12:26:57;;;;;;;2.92;1.90;;;24.10;10.20;;;;;;5063082;28;20189;-82
2023/08/12 12:29:22;;;;;;;2.20;2.00;;;24.00;99.90;;;;;;5045393;28;20184;-80
2023/08/12 12:31:48;;;;;;;3.10;1.95;;;23.90;99.90;;;;;;5063203;28;20667;-82
2023/08/12 12:34:14;;;;;;;3.47;2.20;;;23.80;99.90;;;;;;5063951;28;20178;-82
2023/08/12 12:36:40;;;;;;;2.55;2.03;;;23.70;99.90;;;;;;5045064;28;20272;-82
2023/08/12 12:39:06;;;;;;;2.50;2.30;;;23.70;99.90;;;;;;5045523;28;20208;-82
2023/08/12 12:41:33;;;;;;;3.58;2.42;;;23.80;99.90;;;;;;5045396;28;20268;-81
2023/08/12 12:44:00;;;;;;;3.75;2.78;;;23.70;99.90;;;;;;5063421;28;20174;-82